Terminal Aerodrome Forecast
Issued by NWS Cleveland, OH

Home | Current Version | Previous Version | Text Only | Print | Product List | Glossary Off
Versions: 1 2 3 4 5 6 7 8 9 10 11 12 13 14 15 16 17 18 19 20

000
FTUS41 KCLE 150540
TAFERI
TAF
KERI 150540Z 1506/1606 17011KT P6SM SCT200
     FM150800 19015G25KT P6SM BKN150
     FM151900 22025G35KT P6SM -SHRA VCTS SCT015 OVC025CB
     FM152100 26025G35KT P6SM OVC025
     FM160100 30020G32KT P6SM BKN025=

USA.gov is the U.S. government's official web portal to all federal, state and local government web resources and services.